createdAt,value
2022-09-26T00:00:33.596Z,97617.83
2022-09-26T00:03:25.522Z,97610.35
2022-09-26T00:06:03.187Z,97607.33
2022-09-26T00:08:36.443Z,97604.54
2022-09-26T00:11:10.532Z,97604.80
2022-09-26T00:13:43.816Z,97601.17
2022-09-26T00:16:17.860Z,97597.88
2022-09-26T00:18:52.938Z,97594.81
2022-09-26T00:21:27.003Z,97589.63
2022-09-26T00:24:00.898Z,97583.13
2022-09-26T00:26:35.332Z,97575.52
2022-09-26T00:29:10.055Z,97571.21
2022-09-26T00:31:45.685Z,97572.45
2022-09-26T00:34:21.626Z,97566.80
2022-09-26T00:36:53.899Z,97564.30
2022-09-26T00:39:29.490Z,97560.80
2022-09-26T00:42:01.849Z,97557.91
2022-09-26T00:44:49.345Z,97550.95
2022-09-26T00:47:39.494Z,97542.95
2022-09-26T00:50:18.325Z,97543.23
2022-09-26T00:52:55.962Z,97541.86
2022-09-26T00:55:32.329Z,97545.64
2022-09-26T00:58:11.395Z,97551.41
2022-09-26T01:00:47.892Z,97549.46
2022-09-26T01:03:22.041Z,97552.52
2022-09-26T01:05:55.190Z,97554.04
2022-09-26T01:08:33.414Z,97558.11
2022-09-26T01:11:06.121Z,97554.39
2022-09-26T01:13:41.341Z,97548.38
2022-09-26T01:16:13.773Z,97550.88
2022-09-26T01:18:49.737Z,97549.92
2022-09-26T01:21:46.122Z,97546.63
2022-09-26T01:25:03.321Z,97543.81
2022-09-26T01:28:16.999Z,97538.63
2022-09-26T01:30:59.767Z,97532.20
2022-09-26T01:33:54.919Z,97531.07
2022-09-26T01:36:50.968Z,97533.26
2022-09-26T01:39:36.253Z,97531.77
2022-09-26T01:42:18.461Z,97530.64
2022-09-26T01:45:04.620Z,97528.36
2022-09-26T01:47:48.789Z,97526.30
2022-09-26T01:50:28.778Z,97521.39
2022-09-26T01:53:07.287Z,97514.79
2022-09-26T01:55:46.810Z,97514.86
2022-09-26T01:58:25.333Z,97511.07
2022-09-26T02:01:04.101Z,97510.21
2022-09-26T02:03:42.937Z,97504.79
2022-09-26T02:06:19.998Z,97507.30
2022-09-26T02:08:57.921Z,97507.20
2022-09-26T02:11:31.444Z,97502.42
2022-09-26T02:14:09.138Z,97503.46
2022-09-26T02:16:48.678Z,97503.08
2022-09-26T02:19:27.126Z,97504.77
2022-09-26T02:22:01.433Z,97501.51
2022-09-26T02:24:33.616Z,97501.66
2022-09-26T02:27:07.554Z,97503.20
2022-09-26T02:29:40.787Z,97504.20
2022-09-26T02:32:17.273Z,97503.33
2022-09-26T02:34:51.656Z,97504.51
2022-09-26T02:37:29.200Z,97501.02
2022-09-26T02:40:04.088Z,97498.41
2022-09-26T02:42:43.774Z,97501.59
2022-09-26T02:45:28.092Z,97500.77
2022-09-26T02:48:27.619Z,97497.81
2022-09-26T02:51:17.043Z,97490.98
2022-09-26T02:54:06.725Z,97482.04
2022-09-26T02:56:56.185Z,97486.83
2022-09-26T02:59:35.196Z,97482.48
2022-09-26T03:02:15.983Z,97480.48
2022-09-26T03:04:55.403Z,97480.35
2022-09-26T03:07:36.438Z,97477.73
2022-09-26T03:10:13.278Z,97477.13
2022-09-26T03:12:47.837Z,97478.69
2022-09-26T03:15:20.913Z,97474.98
2022-09-26T03:17:55.969Z,97467.56
2022-09-26T03:20:29.401Z,97465.23
2022-09-26T03:23:03.118Z,97461.19
2022-09-26T03:25:36.910Z,97457.98
2022-09-26T03:28:12.480Z,97453.73
2022-09-26T03:30:45.065Z,97453.02
2022-09-26T03:33:29.252Z,97450.96
2022-09-26T03:36:04.875Z,97449.05
2022-09-26T03:38:37.215Z,97449.73
2022-09-26T03:41:15.749Z,97449.63
2022-09-26T03:44:12.894Z,97447.27
2022-09-26T03:47:04.471Z,97445.68
2022-09-26T03:49:39.092Z,97441.46
2022-09-26T03:52:12.827Z,97437.85
2022-09-26T03:54:45.468Z,97438.34
2022-09-26T03:57:21.148Z,97435.35
2022-09-26T03:59:57.841Z,97429.78
2022-09-26T04:02:33.764Z,97428.94
2022-09-26T04:05:14.491Z,97429.79
2022-09-26T04:07:47.347Z,97429.17
2022-09-26T04:10:19.976Z,97426.15
2022-09-26T04:12:52.099Z,97422.10
2022-09-26T04:15:24.598Z,97418.25
2022-09-26T04:18:05.912Z,97416.02
2022-09-26T04:20:41.179Z,97418.02
2022-09-26T04:23:13.645Z,97418.42
2022-09-26T04:25:45.812Z,97423.24
2022-09-26T04:28:19.682Z,97418.67
2022-09-26T04:30:58.373Z,97413.61
2022-09-26T04:33:32.702Z,97418.13
2022-09-26T04:36:15.139Z,97416.00
2022-09-26T04:38:47.419Z,97416.73
2022-09-26T04:41:21.880Z,97413.10
2022-09-26T04:43:57.123Z,97412.98
2022-09-26T04:46:31.586Z,97419.10
2022-09-26T04:49:06.130Z,97417.40
2022-09-26T04:51:39.288Z,97416.50
2022-09-26T04:54:11.989Z,97412.23
2022-09-26T04:56:47.359Z,97414.20
2022-09-26T04:59:19.768Z,97415.06
2022-09-26T05:02:10.158Z,97415.11
2022-09-26T05:04:48.364Z,97412.99
2022-09-26T05:07:23.609Z,97413.92
2022-09-26T05:09:55.673Z,97414.95
2022-09-26T05:12:30.895Z,97412.42
2022-09-26T05:15:07.616Z,97407.77
2022-09-26T05:17:45.514Z,97410.20
2022-09-26T05:20:20.487Z,97413.28
2022-09-26T05:23:00.764Z,97411.95
2022-09-26T05:25:57.669Z,97414.14
2022-09-26T05:28:32.058Z,97411.35
2022-09-26T05:31:07.534Z,97404.39
2022-09-26T05:33:39.963Z,97401.54
2022-09-26T05:36:14.508Z,97400.60
2022-09-26T05:38:46.850Z,97402.25
2022-09-26T05:41:21.141Z,97401.75
2022-09-26T05:43:56.624Z,97397.14
2022-09-26T05:46:32.045Z,97395.25
2022-09-26T05:49:12.059Z,97395.09
2022-09-26T05:51:45.259Z,97396.73
2022-09-26T05:54:20.274Z,97402.81
2022-09-26T05:56:56.436Z,97399.20
2022-09-26T05:59:41.747Z,97399.62
2022-09-26T06:02:40.595Z,97396.56
2022-09-26T06:05:21.976Z,97401.73
2022-09-26T06:08:16.632Z,97400.30
2022-09-26T06:11:11.017Z,97394.59
2022-09-26T06:13:46.022Z,97391.92
2022-09-26T06:16:21.032Z,97388.08
2022-09-26T06:18:55.924Z,97388.52
2022-09-26T06:21:29.959Z,97391.02
2022-09-26T06:24:14.271Z,97389.05
2022-09-26T06:26:48.145Z,97390.30
2022-09-26T06:29:20.988Z,97391.09
2022-09-26T06:31:53.907Z,97390.36
2022-09-26T06:34:52.415Z,97387.98
2022-09-26T06:37:46.502Z,97380.67
2022-09-26T06:40:18.927Z,97383.48
2022-09-26T06:42:51.027Z,97386.32
2022-09-26T06:45:41.785Z,97381.90
2022-09-26T06:48:24.582Z,97382.83
2022-09-26T06:51:06.885Z,97380.69
2022-09-26T06:53:40.187Z,97381.69
2022-09-26T06:56:12.616Z,97383.53
2022-09-26T06:58:52.135Z,97387.42
2022-09-26T07:01:29.207Z,97393.60
2022-09-26T07:04:36.026Z,97398.48
2022-09-26T07:07:31.231Z,97401.04
2022-09-26T07:10:03.595Z,97399.55
2022-09-26T07:12:45.081Z,97399.35
2022-09-26T07:15:21.953Z,97399.23
2022-09-26T07:17:54.141Z,97396.48
2022-09-26T07:20:56.650Z,97396.05
2022-09-26T07:23:41.719Z,97390.67
2022-09-26T07:26:14.397Z,97389.57
2022-09-26T07:28:52.174Z,97387.61
2022-09-26T07:31:28.660Z,97388.05
2022-09-26T07:34:25.230Z,97388.21
2022-09-26T07:36:57.770Z,97389.36
2022-09-26T07:39:32.479Z,97391.78
2022-09-26T07:42:07.476Z,97389.85
2022-09-26T07:45:20.465Z,97393.34
2022-09-26T07:47:55.820Z,97392.36
2022-09-26T07:50:54.203Z,97392.75
2022-09-26T07:53:41.849Z,97387.88
2022-09-26T07:56:35.548Z,97385.08
2022-09-26T07:59:37.053Z,97388.43
2022-09-26T08:02:34.133Z,97385.30
2022-09-26T08:05:10.130Z,97380.05
2022-09-26T08:07:43.846Z,97379.41
2022-09-26T08:10:23.409Z,97374.85
2022-09-26T08:13:14.340Z,97374.84
2022-09-26T08:15:57.420Z,97375.71
2022-09-26T08:18:34.517Z,97370.95
2022-09-26T08:21:07.659Z,97372.49
2022-09-26T08:23:40.174Z,97364.67
2022-09-26T08:26:31.530Z,97361.44
2022-09-26T08:29:16.630Z,97362.02
2022-09-26T08:31:50.399Z,97364.83
2022-09-26T08:34:25.500Z,97371.36
2022-09-26T08:37:29.084Z,97365.84
2022-09-26T08:40:24.582Z,97366.62
2022-09-26T08:43:32.967Z,97366.61
2022-09-26T08:46:50.167Z,97370.41
2022-09-26T08:50:09.757Z,97369.98
2022-09-26T08:52:48.279Z,97364.50
2022-09-26T08:55:25.164Z,97371.00
2022-09-26T08:58:01.187Z,97373.70
2022-09-26T09:00:39.217Z,97375.73
2022-09-26T09:03:25.967Z,97375.20
2022-09-26T09:06:04.801Z,97371.58
2022-09-26T09:08:43.388Z,97369.77
2022-09-26T09:11:59.476Z,97368.78
2022-09-26T09:15:13.681Z,97367.34
2022-09-26T09:18:14.646Z,97360.41
2022-09-26T09:21:24.751Z,97352.83
2022-09-26T09:24:25.191Z,97350.04
2022-09-26T09:30:24.905Z,97344.39
2022-09-26T09:33:41.585Z,97346.82
2022-09-26T09:36:49.494Z,97347.30
2022-09-26T09:39:45.395Z,97347.39
2022-09-26T09:42:32.627Z,97347.87
2022-09-26T09:45:22.438Z,97350.30
2022-09-26T09:51:06.007Z,97351.73
2022-09-26T09:53:59.362Z,97356.01
2022-09-26T09:56:41.908Z,97354.65
2022-09-26T09:59:31.674Z,97355.52
2022-09-26T10:02:22.171Z,97351.17
2022-09-26T10:05:09.159Z,97348.19
2022-09-26T10:07:41.854Z,97345.67
2022-09-26T10:10:44.264Z,97342.29
2022-09-26T10:13:44.680Z,97344.09
2022-09-26T10:16:36.629Z,97338.08
2022-09-26T10:19:14.130Z,97343.45
2022-09-26T10:21:50.615Z,97343.80
2022-09-26T10:24:34.475Z,97341.65
2022-09-26T10:27:25.424Z,97346.17
2022-09-26T10:30:02.003Z,97342.05
2022-09-26T10:32:52.780Z,97335.48
2022-09-26T10:35:46.171Z,97334.35
2022-09-26T10:38:28.796Z,97332.38
2022-09-26T10:41:28.529Z,97323.45
2022-09-26T10:44:01.581Z,97322.64
2022-09-26T10:47:08.370Z,97315.04
2022-09-26T10:50:03.516Z,97311.57
2022-09-26T10:53:11.024Z,97307.76
2022-09-26T10:55:48.689Z,97301.88
2022-09-26T10:58:27.810Z,97301.66
2022-09-26T11:01:03.559Z,97299.41
2022-09-26T11:03:50.013Z,97296.32
2022-09-26T11:06:41.540Z,97293.80
2022-09-26T11:09:23.642Z,97295.59
2022-09-26T11:12:34.445Z,97295.66
2022-09-26T11:15:15.983Z,97291.39
2022-09-26T11:17:53.478Z,97288.73
2022-09-26T11:20:39.029Z,97290.20
2022-09-26T11:23:31.713Z,97284.98
2022-09-26T11:26:18.275Z,97288.52
2022-09-26T11:28:55.101Z,97285.60
2022-09-26T11:31:44.370Z,97284.41
2022-09-26T11:34:36.252Z,97281.50
2022-09-26T11:37:31.877Z,97279.33
2022-09-26T11:40:23.862Z,97276.90
2022-09-26T11:43:13.662Z,97279.20
2022-09-26T11:46:04.330Z,97277.61
2022-09-26T11:49:22.989Z,97274.48
2022-09-26T11:52:30.622Z,97267.98
2022-09-26T11:55:32.303Z,97264.28
2022-09-26T11:58:35.220Z,97260.52
2022-09-26T12:01:24.387Z,97254.34
2022-09-26T12:04:19.463Z,97255.91
2022-09-26T12:07:04.752Z,97259.05
2022-09-26T12:09:58.113Z,97257.38
2022-09-26T12:12:41.563Z,97251.20
2022-09-26T12:15:23.693Z,97252.54
2022-09-26T12:18:13.809Z,97249.48
2022-09-26T12:20:58.076Z,97244.00
2022-09-26T12:23:37.789Z,97243.67
2022-09-26T12:26:20.723Z,97243.22
2022-09-26T12:29:25.089Z,97236.96
2022-09-26T12:32:15.908Z,97238.61
2022-09-26T12:34:54.591Z,97242.89
2022-09-26T12:37:49.248Z,97243.40
2022-09-26T12:40:40.923Z,97241.42
2022-09-26T12:43:41.805Z,97242.20
2022-09-26T12:46:38.584Z,97245.25
2022-09-26T12:49:33.156Z,97246.06
2022-09-26T12:52:17.519Z,97243.02
2022-09-26T12:55:17.059Z,97242.39
2022-09-26T12:58:06.122Z,97237.45
2022-09-26T13:00:43.055Z,97233.56
2022-09-26T13:03:39.807Z,97234.49
2022-09-26T13:06:35.930Z,97234.70
2022-09-26T13:09:25.593Z,97235.89
2022-09-26T13:12:09.751Z,97236.38
2022-09-26T13:15:00.892Z,97239.27
2022-09-26T13:17:37.273Z,97242.02
2022-09-26T13:20:17.597Z,97244.88
2022-09-26T13:22:56.702Z,97246.16
2022-09-26T13:25:35.743Z,97248.05
2022-09-26T13:28:13.599Z,97247.05
2022-09-26T13:30:54.905Z,97253.09
2022-09-26T13:33:34.498Z,97256.33
2022-09-26T13:36:09.449Z,97258.16
2022-09-26T13:38:53.547Z,97252.34
2022-09-26T13:41:45.766Z,97248.34
2022-09-26T13:44:30.659Z,97242.00
2022-09-26T13:47:13.647Z,97244.07
2022-09-26T13:49:58.917Z,97244.30
2022-09-26T13:52:52.480Z,97249.35
2022-09-26T13:55:26.478Z,97249.27
2022-09-26T13:58:20.096Z,97247.91
2022-09-26T14:00:57.799Z,97244.34
2022-09-26T14:03:49.527Z,97244.41
2022-09-26T14:06:32.228Z,97247.82
2022-09-26T14:09:25.184Z,97246.05
2022-09-26T14:12:21.600Z,97240.90
2022-09-26T14:15:16.251Z,97237.73
2022-09-26T14:18:17.497Z,97236.34
2022-09-26T14:21:05.623Z,97232.78
2022-09-26T14:23:43.944Z,97230.58
2022-09-26T14:26:22.314Z,97227.35
2022-09-26T14:29:00.086Z,97229.35
2022-09-26T14:31:43.460Z,97235.02
2022-09-26T14:34:21.698Z,97239.73
2022-09-26T14:36:57.690Z,97245.98
2022-09-26T14:39:44.621Z,97253.01
2022-09-26T14:42:26.783Z,97248.33
2022-09-26T14:45:02.534Z,97243.77
2022-09-26T14:47:49.269Z,97242.70
2022-09-26T14:50:26.304Z,97243.63
2022-09-26T14:53:14.968Z,97246.88
2022-09-26T14:56:01.040Z,97255.33
2022-09-26T14:58:49.850Z,97255.48
2022-09-26T15:01:30.080Z,97258.43
2022-09-26T15:04:04.197Z,97256.73
2022-09-26T15:06:47.579Z,97256.42
2022-09-26T15:09:26.421Z,97258.75
2022-09-26T15:12:03.546Z,97262.41
2022-09-26T15:14:43.391Z,97266.09
2022-09-26T15:17:23.500Z,97269.13
2022-09-26T15:20:00.238Z,97266.54
2022-09-26T15:22:35.405Z,97267.09
2022-09-26T15:25:22.294Z,97265.39
2022-09-26T15:27:56.754Z,97265.81
2022-09-26T15:30:37.516Z,97269.23
2022-09-26T15:33:18.763Z,97267.55
2022-09-26T15:35:57.700Z,97264.72
2022-09-26T15:38:30.569Z,97260.17
2022-09-26T15:41:05.173Z,97260.21
2022-09-26T15:43:38.716Z,97256.09
2022-09-26T15:46:24.456Z,97250.23
2022-09-26T15:48:57.435Z,97250.73
2022-09-26T15:51:38.213Z,97246.48
2022-09-26T15:54:21.707Z,97248.23
2022-09-26T15:56:56.920Z,97237.14
2022-09-26T15:59:35.414Z,97235.71
2022-09-26T16:02:24.558Z,97227.05
2022-09-26T16:04:57.973Z,97226.40
2022-09-26T16:07:31.823Z,97227.48
2022-09-26T16:10:09.469Z,97220.60
2022-09-26T16:12:42.531Z,97221.29
2022-09-26T16:15:19.739Z,97223.53
2022-09-26T16:17:57.446Z,97217.05
2022-09-26T16:20:34.188Z,97210.02
2022-09-26T16:23:06.661Z,97205.77
2022-09-26T16:25:54.959Z,97201.27
2022-09-26T16:28:45.192Z,97206.55
2022-09-26T16:31:28.821Z,97212.88
2022-09-26T16:34:02.605Z,97223.02
2022-09-26T16:36:36.236Z,97221.31
2022-09-26T16:39:19.472Z,97219.96
2022-09-26T16:42:02.645Z,97215.63
2022-09-26T16:44:41.111Z,97217.22
2022-09-26T16:47:35.799Z,97214.71
2022-09-26T16:50:29.784Z,97213.67
2022-09-26T16:53:06.679Z,97218.24
2022-09-26T16:55:39.066Z,97215.06
2022-09-26T16:58:16.070Z,97215.46
2022-09-26T17:01:11.832Z,97221.30
2022-09-26T17:03:46.884Z,97214.71
2022-09-26T17:06:19.462Z,97214.95
2022-09-26T17:08:52.580Z,97215.63
2022-09-26T17:11:28.073Z,97212.38
2022-09-26T17:14:00.570Z,97211.09
2022-09-26T17:16:34.334Z,97215.89
2022-09-26T17:19:06.772Z,97209.86
2022-09-26T17:21:41.600Z,97209.29
2022-09-26T17:24:18.086Z,97207.45
2022-09-26T17:26:55.279Z,97206.18
2022-09-26T17:29:31.646Z,97205.39
2022-09-26T17:32:09.840Z,97204.62
2022-09-26T17:34:44.604Z,97196.84
2022-09-26T17:37:22.427Z,97202.44
2022-09-26T17:39:55.407Z,97209.23
2022-09-26T17:42:30.465Z,97215.07
2022-09-26T17:45:05.473Z,97213.35
2022-09-26T17:47:38.944Z,97212.55
2022-09-26T17:50:18.407Z,97210.90
2022-09-26T17:52:50.943Z,97212.66
2022-09-26T17:55:24.813Z,97211.02
2022-09-26T17:57:58.462Z,97206.08
2022-09-26T18:00:40.379Z,97208.73
2022-09-26T18:03:19.254Z,97208.30
2022-09-26T18:05:52.105Z,97204.07
2022-09-26T18:08:28.146Z,97202.86
2022-09-26T18:11:03.517Z,97206.38
2022-09-26T18:13:39.906Z,97202.91
2022-09-26T18:16:19.152Z,97200.34
2022-09-26T18:18:52.035Z,97198.65
2022-09-26T18:21:26.429Z,97199.29
2022-09-26T18:24:02.345Z,97203.81
2022-09-26T18:26:42.159Z,97204.59
2022-09-26T18:29:17.434Z,97208.29
2022-09-26T18:31:49.922Z,97208.92
2022-09-26T18:34:22.139Z,97207.73
2022-09-26T18:36:57.165Z,97202.65
2022-09-26T18:39:29.834Z,97206.10
2022-09-26T18:42:09.281Z,97205.33
2022-09-26T18:44:44.045Z,97208.46
2022-09-26T18:47:21.902Z,97212.41
2022-09-26T18:49:55.288Z,97216.02
2022-09-26T18:52:31.096Z,97213.22
2022-09-26T18:55:33.106Z,97215.31
2022-09-26T18:58:24.148Z,97210.94
2022-09-26T19:00:59.942Z,97208.92
2022-09-26T19:03:36.444Z,97210.02
2022-09-26T19:06:12.935Z,97212.46
2022-09-26T19:08:47.325Z,97212.02
2022-09-26T19:11:22.585Z,97207.67
2022-09-26T19:13:57.148Z,97208.34
2022-09-26T19:16:29.866Z,97214.73
2022-09-26T19:19:03.054Z,97209.80
2022-09-26T19:21:37.610Z,97206.67
2022-09-26T19:24:20.767Z,97207.52
2022-09-26T19:26:57.148Z,97211.99
2022-09-26T19:29:34.046Z,97218.94
2022-09-26T19:32:17.621Z,97219.27
2022-09-26T19:34:54.032Z,97219.07
2022-09-26T19:37:26.880Z,97218.61
2022-09-26T19:39:59.537Z,97221.01
2022-09-26T19:42:32.579Z,97225.41
2022-09-26T19:45:05.260Z,97230.44
2022-09-26T19:47:39.253Z,97230.58
2022-09-26T19:50:17.344Z,97229.88
2022-09-26T19:52:50.160Z,97229.70
2022-09-26T19:55:26.573Z,97230.05
2022-09-26T19:58:01.783Z,97231.33
2022-09-26T20:00:42.532Z,97233.81
2022-09-26T20:03:20.754Z,97229.30
2022-09-26T20:05:53.767Z,97230.02
2022-09-26T20:08:29.074Z,97232.40
2022-09-26T20:11:01.649Z,97229.96
2022-09-26T20:13:54.742Z,97228.21
2022-09-26T20:16:28.848Z,97228.73
2022-09-26T20:19:01.903Z,97226.10
2022-09-26T20:21:35.352Z,97229.39
2022-09-26T20:24:14.578Z,97226.55
2022-09-26T20:26:50.086Z,97221.44
2022-09-26T20:29:22.461Z,97218.48
2022-09-26T20:31:57.390Z,97219.00
2022-09-26T20:34:30.274Z,97222.52
2022-09-26T20:37:02.950Z,97220.27
2022-09-26T20:39:35.455Z,97219.59
2022-09-26T20:42:08.925Z,97214.85
2022-09-26T20:44:41.547Z,97210.33
2022-09-26T20:47:19.997Z,97211.83
2022-09-26T20:49:55.376Z,97213.98
2022-09-26T20:52:30.239Z,97211.73
2022-09-26T20:55:02.496Z,97211.48
2022-09-26T20:57:35.168Z,97211.87
2022-09-26T21:00:11.515Z,97210.72
2022-09-26T21:02:45.032Z,97206.10
2022-09-26T21:05:24.529Z,97207.13
2022-09-26T21:07:58.818Z,97208.40
2022-09-26T21:10:34.879Z,97207.05
2022-09-26T21:13:07.200Z,97198.73
2022-09-26T21:15:41.655Z,97197.42
2022-09-26T21:18:25.323Z,97191.03
2022-09-26T21:21:04.040Z,97187.81
2022-09-26T21:24:05.572Z,97179.61
2022-09-26T21:26:40.700Z,97177.64
2022-09-26T21:29:17.265Z,97171.21
2022-09-26T21:31:51.689Z,97178.23
2022-09-26T21:34:28.681Z,97175.33
2022-09-26T21:37:04.095Z,97176.52
2022-09-26T21:39:39.068Z,97176.85
2022-09-26T21:42:11.376Z,97177.98
2022-09-26T21:44:47.844Z,97181.80
2022-09-26T21:47:20.243Z,97179.52
2022-09-26T21:49:54.585Z,97173.45
2022-09-26T21:52:34.003Z,97170.08
2022-09-26T21:55:10.534Z,97163.54
2022-09-26T21:57:46.159Z,97168.31
2022-09-26T22:00:18.759Z,97166.09
2022-09-26T22:02:51.367Z,97162.76
2022-09-26T22:05:25.758Z,97161.51
2022-09-26T22:07:59.627Z,97159.50
2022-09-26T22:10:34.168Z,97157.73
2022-09-26T22:13:06.835Z,97153.33
2022-09-26T22:15:39.407Z,97152.98
2022-09-26T22:18:11.799Z,97149.86
2022-09-26T22:20:45.769Z,97149.38
2022-09-26T22:23:18.759Z,97150.49
2022-09-26T22:25:55.529Z,97145.18
2022-09-26T22:28:28.052Z,97141.48
2022-09-26T22:31:03.224Z,97138.34
2022-09-26T22:33:36.411Z,97130.06
2022-09-26T22:36:10.041Z,97130.92
2022-09-26T22:38:42.300Z,97131.68
2022-09-26T22:41:14.654Z,97131.42
2022-09-26T22:43:46.893Z,97131.19
2022-09-26T22:46:19.267Z,97125.67
2022-09-26T22:48:51.764Z,97127.41
2022-09-26T22:51:24.217Z,97122.96
2022-09-26T22:53:56.519Z,97124.42
2022-09-26T22:56:29.992Z,97123.89
2022-09-26T22:59:03.204Z,97124.76
2022-09-26T23:01:35.667Z,97121.92
2022-09-26T23:04:08.011Z,97114.76
2022-09-26T23:06:40.439Z,97113.77
2022-09-26T23:09:12.985Z,97116.67
2022-09-26T23:11:47.237Z,97115.96
2022-09-26T23:14:22.027Z,97109.63
2022-09-26T23:16:55.164Z,97104.52
2022-09-26T23:19:27.921Z,97101.39
2022-09-26T23:22:03.105Z,97101.27
2022-09-26T23:24:35.735Z,97097.84
2022-09-26T23:27:08.282Z,97098.38
2022-09-26T23:29:47.058Z,97091.85
2022-09-26T23:32:20.473Z,97094.05
2022-09-26T23:34:53.159Z,97099.90
2022-09-26T23:37:25.601Z,97097.00
2022-09-26T23:40:01.052Z,97093.79
2022-09-26T23:42:37.835Z,97090.74
2022-09-26T23:45:12.255Z,97089.13
2022-09-26T23:47:47.574Z,97089.30
2022-09-26T23:50:20.000Z,97081.20
2022-09-26T23:52:52.651Z,97077.02
2022-09-26T23:55:25.996Z,97074.86
2022-09-26T23:58:01.173Z,97072.27
